Active alerts

Gallatin County, MT
  Details for Gallatin County, MT Winter Storm Warning
Gallatin County, MT
  Details for Gallatin County, MT Hydrologic Outlook

Thunder radar more information blitzortung!


Rain radar more information rain snow radar



Nearby METAR Reports

   
KNUQ - Mountain View, CA
Updated: Nov 18 2019 8:56 am
  
  
   Wind: Calm
Wind: Calm
Barometer: 29.99 inHg
KNUQ 181656Z A2999 RMK AO2 SLP160 PWINO $
KSFO - San Francisco, CA
Updated: Nov 18 2019 8:56 am
Few Clouds  
Few Clouds  
   Wind: Calm
Wind: Calm
Temperature: 60.8°F
Dew Point: 53.6°F
Humidity: 77%
Barometer: 29.98 inHg
Clouds: Few Clouds
Visibility: 9 mi
Cloud details: Few Clouds 20000 ft
KSFO 181656Z 00000KT 9SM FEW200 16/12 A2998 RMK AO2 SLP152 T01610117
KSJC - San Jose, CA
Updated: Nov 18 2019 8:53 am
Few Clouds  
Few Clouds  
   Wind: Calm
Wind: Calm
Temperature: 57.2°F
Dew Point: 44.6°F
Humidity: 63%
Barometer: 29.99 inHg
Clouds: Few Clouds
Visibility: 10 mi
Cloud details: Few Clouds 1400 ft
KSJC 181653Z 00000KT 10SM FEW014 14/07 A2999 RMK AO2 SLP154 FU FEW014 T01440067 $
KOAK - Oakland, CA
Updated: Nov 18 2019 8:53 am
Clear  
Clear  
   Wind: SSE 3.5 mph
Wind: SSE 3.5 mph
Temperature: 60.8°F
Dew Point: 46.4°F
Humidity: 59%
Barometer: 29.99 inHg
Clouds: Clear
Visibility: 10 mi
Cloud details: Clear ft
KOAK 181653Z 16003KT 10SM CLR 16/08 A2999 RMK AO2 SLP155 T01610083
KMRY - Monterey, CA
Updated: Nov 18 2019 8:54 am
Clear  
Clear  
   Wind: Calm
Wind: Calm
Temperature: 64.4°F
Dew Point: 39.2°F
Humidity: 40%
Barometer: 29.94 inHg
Clouds: Clear
Visibility: 10 mi
Cloud details: Clear ft
KMRY 181654Z 00000KT 10SM CLR 18/04 A2994 RMK AO2 SLP152 T01830039
KWYS - West Yellowstone, MT
Updated: Nov 18 2019 9:05 am
Clear  
Clear  
   Wind: Calm
Wind: Calm
Temperature: 32°F
Dew Point: 26.6°F
Humidity: 80%
Barometer: 30.16 inHg
Clouds: Clear
Visibility: 10 mi
Cloud details: Clear ft
KWYS 181705Z AUTO 00000KT 10SM CLR M00/M03 A3016 RMK AO2
KDCA - Washington, DC
Updated: Nov 18 2019 9:06 am
Overcast  
Overcast  
   Wind: NNW 5.8 mph
Wind: NNW 5.8 mph
Temperature: 42.8°F
Wind Chill: 39.2°F
Dew Point: 37.4°F
Humidity: 81%
Barometer: 29.83 inHg
Clouds: Overcast
Visibility: 9 mi
Cloud details: Overcast 1000 ft
KDCA 181706Z 34005KT 9SM OVC010 06/03 A2983 RMK AO2 T00610033
KIAD - Washington Dulles, VA
Updated: Nov 18 2019 8:52 am
Haze, Overcast  
Haze, Overcast  
   Wind: NW 5.8 mph
Wind: NW 5.8 mph
Temperature: 41°F
Wind Chill: 37.4°F
Dew Point: 35.6°F
Humidity: 81%
Barometer: 29.83 inHg
Clouds: Overcast
Visibility: 3 mi
Cloud details: Mostly Cloudy 500 ft,
Overcast 800 ft
KIAD 181652Z 32005KT 3SM HZ BKN005 OVC008 05/02 A2983 RMK AO2 SLP102 T00500022
KMIA - Miami Beach, FL
Updated: Nov 18 2019 8:53 am
Mostly Cloudy  
Mostly Cloudy  
   Wind: WNW 11.5 mph
Wind: WNW 11.5 mph
Temperature: 69.8°F
Dew Point: 55.4°F
Humidity: 60%
Barometer: 29.88 inHg
Clouds: Mostly Cloudy
Visibility: 10 mi
Cloud details: Few Clouds 1800 ft,
Mostly Cloudy 24000 ft
KMIA 181653Z 29010KT 270V330 10SM FEW018 BKN240 21/13 A2988 RMK AO2 SLP117 T02060128

Script developed by  Saratoga-weather.org Adapted for the template by  Weerstation Leuven

You find our weather info also at:

Weather Underground

Citizen Weather Observer Program (CWOP)

Equipment we use:

Weather-station
Ambient WS-1400-IP

Weather-program
Meteobridge

Weather-server
TP-LINK TL-MR3020

Ambient WS-1400-IP

Meteobridge

TP-LINK TL-MR3020